sensor_id;sensor_type;location;lat;lon;timestamp;temperature;humidity
68813;DHT22;55808;48.112;11.552;2022-12-08T00:00:54;1.80;99.90
68813;DHT22;55808;48.112;11.552;2022-12-08T00:03:20;1.70;99.90
68813;DHT22;55808;48.112;11.552;2022-12-08T00:05:47;1.70;99.90
68813;DHT22;55808;48.112;11.552;2022-12-08T00:08:32;1.70;99.90
68813;DHT22;55808;48.112;11.552;2022-12-08T00:11:18;1.70;99.90
68813;DHT22;55808;48.112;11.552;2022-12-08T00:13:44;1.70;99.90
68813;DHT22;55808;48.112;11.552;2022-12-08T00:16:10;1.60;99.90
68813;DHT22;55808;48.112;11.552;2022-12-08T00:18:36;1.50;99.90
68813;DHT22;55808;48.112;11.552;2022-12-08T00:21:02;1.50;99.90
68813;DHT22;55808;48.112;11.552;2022-12-08T00:23:28;1.60;99.90
68813;DHT22;55808;48.112;11.552;2022-12-08T00:25:54;1.60;99.90
68813;DHT22;55808;48.112;11.552;2022-12-08T00:28:19;1.60;99.90
68813;DHT22;55808;48.112;11.552;2022-12-08T00:30:45;1.60;99.90
68813;DHT22;55808;48.112;11.552;2022-12-08T00:33:11;1.50;99.90
68813;DHT22;55808;48.112;11.552;2022-12-08T00:35:37;1.50;99.90
68813;DHT22;55808;48.112;11.552;2022-12-08T00:38:03;1.50;99.90
68813;DHT22;55808;48.112;11.552;2022-12-08T00:40:28;1.50;99.90
68813;DHT22;55808;48.112;11.552;2022-12-08T00:42:54;1.50;99.90
68813;DHT22;55808;48.112;11.552;2022-12-08T00:45:20;1.50;99.90
68813;DHT22;55808;48.112;11.552;2022-12-08T00:47:45;1.40;99.90
68813;DHT22;55808;48.112;11.552;2022-12-08T00:50:11;1.50;99.90
68813;DHT22;55808;48.112;11.552;2022-12-08T00:52:37;1.60;99.90
68813;DHT22;55808;48.112;11.552;2022-12-08T00:55:04;1.60;99.90
68813;DHT22;55808;48.112;11.552;2022-12-08T00:57:29;1.60;99.90
68813;DHT22;55808;48.112;11.552;2022-12-08T00:59:55;1.50;99.90
68813;DHT22;55808;48.112;11.552;2022-12-08T01:02:21;1.50;99.90
68813;DHT22;55808;48.112;11.552;2022-12-08T01:04:47;1.50;99.90
68813;DHT22;55808;48.112;11.552;2022-12-08T01:07:13;1.50;99.90
68813;DHT22;55808;48.112;11.552;2022-12-08T01:09:38;1.50;99.90
68813;DHT22;55808;48.112;11.552;2022-12-08T01:12:05;1.50;99.90
68813;DHT22;55808;48.112;11.552;2022-12-08T01:14:30;1.50;99.90
68813;DHT22;55808;48.112;11.552;2022-12-08T01:16:56;1.50;99.90
68813;DHT22;55808;48.112;11.552;2022-12-08T01:19:22;1.50;99.90
68813;DHT22;55808;48.112;11.552;2022-12-08T01:21:47;1.50;99.90
68813;DHT22;55808;48.112;11.552;2022-12-08T01:24:15;1.50;99.90
68813;DHT22;55808;48.112;11.552;2022-12-08T01:26:41;1.50;99.90
68813;DHT22;55808;48.112;11.552;2022-12-08T01:29:07;1.50;99.90
68813;DHT22;55808;48.112;11.552;2022-12-08T01:31:33;1.60;99.90
68813;DHT22;55808;48.112;11.552;2022-12-08T01:33:58;1.50;99.90
68813;DHT22;55808;48.112;11.552;2022-12-08T01:36:31;1.40;99.90
68813;DHT22;55808;48.112;11.552;2022-12-08T01:38:59;1.50;99.90
68813;DHT22;55808;48.112;11.552;2022-12-08T01:41:28;1.50;99.90
68813;DHT22;55808;48.112;11.552;2022-12-08T01:46:41;1.50;99.90
68813;DHT22;55808;48.112;11.552;2022-12-08T01:51:55;1.50;99.90
68813;DHT22;55808;48.112;11.552;2022-12-08T01:54:25;1.50;99.90
68813;DHT22;55808;48.112;11.552;2022-12-08T01:57:06;1.50;99.90
68813;DHT22;55808;48.112;11.552;2022-12-08T01:59:36;1.50;99.90
68813;DHT22;55808;48.112;11.552;2022-12-08T02:02:03;1.50;99.90
68813;DHT22;55808;48.112;11.552;2022-12-08T02:04:29;1.50;99.90
68813;DHT22;55808;48.112;11.552;2022-12-08T02:06:54;1.50;99.90
68813;DHT22;55808;48.112;11.552;2022-12-08T02:09:20;1.50;99.90
68813;DHT22;55808;48.112;11.552;2022-12-08T02:11:46;1.40;99.90
68813;DHT22;55808;48.112;11.552;2022-12-08T02:14:13;1.40;99.90
68813;DHT22;55808;48.112;11.552;2022-12-08T02:17:30;1.40;99.90
68813;DHT22;55808;48.112;11.552;2022-12-08T02:31:31;1.30;99.90
68813;DHT22;55808;48.112;11.552;2022-12-08T02:34:30;1.30;99.90
68813;DHT22;55808;48.112;11.552;2022-12-08T02:37:16;1.20;99.90
68813;DHT22;55808;48.112;11.552;2022-12-08T02:39:51;1.20;99.90
68813;DHT22;55808;48.112;11.552;2022-12-08T02:42:36;1.20;99.90
68813;DHT22;55808;48.112;11.552;2022-12-08T02:45:07;1.10;99.90
68813;DHT22;55808;48.112;11.552;2022-12-08T02:47:34;1.10;99.90
68813;DHT22;55808;48.112;11.552;2022-12-08T02:50:01;1.10;99.90
68813;DHT22;55808;48.112;11.552;2022-12-08T02:55:02;1.10;99.90
68813;DHT22;55808;48.112;11.552;2022-12-08T03:00:22;1.10;99.90
68813;DHT22;55808;48.112;11.552;2022-12-08T03:03:23;1.20;99.90
68813;DHT22;55808;48.112;11.552;2022-12-08T03:06:23;1.10;99.90
68813;DHT22;55808;48.112;11.552;2022-12-08T03:11:47;1.00;99.90
68813;DHT22;55808;48.112;11.552;2022-12-08T03:14:16;1.00;99.90
68813;DHT22;55808;48.112;11.552;2022-12-08T03:16:45;1.10;99.90
68813;DHT22;55808;48.112;11.552;2022-12-08T03:19:28;1.10;99.90
68813;DHT22;55808;48.112;11.552;2022-12-08T03:21:57;1.10;99.90
68813;DHT22;55808;48.112;11.552;2022-12-08T03:24:32;1.10;99.90
68813;DHT22;55808;48.112;11.552;2022-12-08T03:27:03;1.10;99.90
68813;DHT22;55808;48.112;11.552;2022-12-08T03:29:31;1.10;99.90
68813;DHT22;55808;48.112;11.552;2022-12-08T03:32:23;1.10;99.90
68813;DHT22;55808;48.112;11.552;2022-12-08T03:34:48;1.20;99.90
68813;DHT22;55808;48.112;11.552;2022-12-08T03:37:14;1.20;99.90
68813;DHT22;55808;48.112;11.552;2022-12-08T03:39:40;1.20;99.90
68813;DHT22;55808;48.112;11.552;2022-12-08T03:42:06;1.20;99.90
68813;DHT22;55808;48.112;11.552;2022-12-08T03:44:32;1.20;99.90
68813;DHT22;55808;48.112;11.552;2022-12-08T03:46:57;1.20;99.90
68813;DHT22;55808;48.112;11.552;2022-12-08T03:49:23;1.10;99.90
68813;DHT22;55808;48.112;11.552;2022-12-08T03:51:49;1.10;99.90
68813;DHT22;55808;48.112;11.552;2022-12-08T03:54:14;1.10;99.90
68813;DHT22;55808;48.112;11.552;2022-12-08T03:56:40;1.10;99.90
68813;DHT22;55808;48.112;11.552;2022-12-08T03:59:06;1.10;99.90
68813;DHT22;55808;48.112;11.552;2022-12-08T04:01:32;1.10;99.90
68813;DHT22;55808;48.112;11.552;2022-12-08T04:03:58;1.20;99.90
68813;DHT22;55808;48.112;11.552;2022-12-08T04:06:24;1.10;99.90
68813;DHT22;55808;48.112;11.552;2022-12-08T04:08:50;1.10;99.90
68813;DHT22;55808;48.112;11.552;2022-12-08T04:11:17;1.10;99.90
68813;DHT22;55808;48.112;11.552;2022-12-08T04:13:43;1.00;99.90
68813;DHT22;55808;48.112;11.552;2022-12-08T04:16:20;1.00;99.90
68813;DHT22;55808;48.112;11.552;2022-12-08T04:18:47;1.00;99.90
68813;DHT22;55808;48.112;11.552;2022-12-08T04:21:13;1.00;99.90
68813;DHT22;55808;48.112;11.552;2022-12-08T04:23:39;1.00;99.90
68813;DHT22;55808;48.112;11.552;2022-12-08T04:26:04;0.90;99.90
68813;DHT22;55808;48.112;11.552;2022-12-08T04:28:30;0.90;99.90
68813;DHT22;55808;48.112;11.552;2022-12-08T04:30:56;0.90;99.90
68813;DHT22;55808;48.112;11.552;2022-12-08T04:33:24;0.90;99.90
68813;DHT22;55808;48.112;11.552;2022-12-08T04:35:50;1.00;99.90
68813;DHT22;55808;48.112;11.552;2022-12-08T04:38:16;1.00;99.90
68813;DHT22;55808;48.112;11.552;2022-12-08T04:40:42;1.00;99.90
68813;DHT22;55808;48.112;11.552;2022-12-08T04:43:08;0.90;99.90
68813;DHT22;55808;48.112;11.552;2022-12-08T04:45:33;1.00;99.90
68813;DHT22;55808;48.112;11.552;2022-12-08T04:48:00;0.90;99.90
68813;DHT22;55808;48.112;11.552;2022-12-08T04:50:26;0.90;99.90
68813;DHT22;55808;48.112;11.552;2022-12-08T04:52:52;0.90;99.90
68813;DHT22;55808;48.112;11.552;2022-12-08T04:55:17;0.90;99.90
68813;DHT22;55808;48.112;11.552;2022-12-08T04:57:43;0.90;99.90
68813;DHT22;55808;48.112;11.552;2022-12-08T05:00:09;0.90;99.90
68813;DHT22;55808;48.112;11.552;2022-12-08T05:02:35;0.90;99.90
68813;DHT22;55808;48.112;11.552;2022-12-08T05:05:01;0.90;99.90
68813;DHT22;55808;48.112;11.552;2022-12-08T05:07:27;0.90;99.90
68813;DHT22;55808;48.112;11.552;2022-12-08T05:09:52;0.90;99.90
68813;DHT22;55808;48.112;11.552;2022-12-08T05:12:18;0.90;99.90
68813;DHT22;55808;48.112;11.552;2022-12-08T05:14:45;0.90;99.90
68813;DHT22;55808;48.112;11.552;2022-12-08T05:17:10;0.90;99.90
68813;DHT22;55808;48.112;11.552;2022-12-08T05:19:36;0.90;99.90
68813;DHT22;55808;48.112;11.552;2022-12-08T05:22:02;0.90;99.90
68813;DHT22;55808;48.112;11.552;2022-12-08T05:24:27;0.90;99.90
68813;DHT22;55808;48.112;11.552;2022-12-08T05:26:53;0.90;99.90
68813;DHT22;55808;48.112;11.552;2022-12-08T05:29:20;0.90;99.90
68813;DHT22;55808;48.112;11.552;2022-12-08T05:31:46;0.90;99.90
68813;DHT22;55808;48.112;11.552;2022-12-08T05:34:11;0.90;99.90
68813;DHT22;55808;48.112;11.552;2022-12-08T05:36:37;0.90;99.90
68813;DHT22;55808;48.112;11.552;2022-12-08T05:39:02;0.90;99.90
68813;DHT22;55808;48.112;11.552;2022-12-08T05:41:28;0.90;99.90
68813;DHT22;55808;48.112;11.552;2022-12-08T05:43:54;0.90;99.90
68813;DHT22;55808;48.112;11.552;2022-12-08T05:46:19;0.90;99.90
68813;DHT22;55808;48.112;11.552;2022-12-08T05:48:45;1.00;99.90
68813;DHT22;55808;48.112;11.552;2022-12-08T05:51:19;1.00;99.90
68813;DHT22;55808;48.112;11.552;2022-12-08T05:53:45;1.00;99.90
68813;DHT22;55808;48.112;11.552;2022-12-08T05:56:12;1.00;99.90
68813;DHT22;55808;48.112;11.552;2022-12-08T05:58:38;0.90;99.90
68813;DHT22;55808;48.112;11.552;2022-12-08T06:01:04;0.90;99.90
68813;DHT22;55808;48.112;11.552;2022-12-08T06:03:29;1.00;99.90
68813;DHT22;55808;48.112;11.552;2022-12-08T06:05:55;1.00;99.90
68813;DHT22;55808;48.112;11.552;2022-12-08T06:08:21;0.90;99.90
68813;DHT22;55808;48.112;11.552;2022-12-08T06:10:47;0.90;99.90
68813;DHT22;55808;48.112;11.552;2022-12-08T06:13:13;0.90;99.90
68813;DHT22;55808;48.112;11.552;2022-12-08T06:15:40;0.90;99.90
68813;DHT22;55808;48.112;11.552;2022-12-08T06:18:06;0.90;99.90
68813;DHT22;55808;48.112;11.552;2022-12-08T06:20:33;0.90;99.90
68813;DHT22;55808;48.112;11.552;2022-12-08T06:22:59;0.90;99.90
68813;DHT22;55808;48.112;11.552;2022-12-08T06:25:25;0.90;99.90
68813;DHT22;55808;48.112;11.552;2022-12-08T06:27:51;0.90;99.90
68813;DHT22;55808;48.112;11.552;2022-12-08T06:30:17;0.80;99.90
68813;DHT22;55808;48.112;11.552;2022-12-08T06:32:43;0.90;99.90
68813;DHT22;55808;48.112;11.552;2022-12-08T06:35:08;0.80;99.90
68813;DHT22;55808;48.112;11.552;2022-12-08T06:37:34;0.90;99.90
68813;DHT22;55808;48.112;11.552;2022-12-08T06:40:00;0.90;99.90
68813;DHT22;55808;48.112;11.552;2022-12-08T06:42:26;0.90;99.90
68813;DHT22;55808;48.112;11.552;2022-12-08T06:45:13;1.00;99.90
68813;DHT22;55808;48.112;11.552;2022-12-08T06:47:40;1.00;99.90
68813;DHT22;55808;48.112;11.552;2022-12-08T06:50:06;0.90;99.90
68813;DHT22;55808;48.112;11.552;2022-12-08T06:52:33;0.90;99.90
68813;DHT22;55808;48.112;11.552;2022-12-08T06:54:58;0.90;99.90
68813;DHT22;55808;48.112;11.552;2022-12-08T06:57:24;0.90;99.90
68813;DHT22;55808;48.112;11.552;2022-12-08T06:59:50;0.90;99.90
68813;DHT22;55808;48.112;11.552;2022-12-08T07:02:15;0.80;99.90
68813;DHT22;55808;48.112;11.552;2022-12-08T07:04:42;0.80;99.90
68813;DHT22;55808;48.112;11.552;2022-12-08T07:07:07;0.80;99.90
68813;DHT22;55808;48.112;11.552;2022-12-08T07:09:33;0.80;99.90
68813;DHT22;55808;48.112;11.552;2022-12-08T07:11:59;0.80;99.90
68813;DHT22;55808;48.112;11.552;2022-12-08T07:14:24;0.80;99.90
68813;DHT22;55808;48.112;11.552;2022-12-08T07:16:51;0.90;99.90
68813;DHT22;55808;48.112;11.552;2022-12-08T07:19:17;0.90;99.90
68813;DHT22;55808;48.112;11.552;2022-12-08T07:21:43;1.00;99.90
68813;DHT22;55808;48.112;11.552;2022-12-08T07:24:09;1.00;99.90
68813;DHT22;55808;48.112;11.552;2022-12-08T07:26:34;1.00;99.90
68813;DHT22;55808;48.112;11.552;2022-12-08T07:29:00;1.10;99.90
68813;DHT22;55808;48.112;11.552;2022-12-08T07:31:26;1.10;99.90
68813;DHT22;55808;48.112;11.552;2022-12-08T07:33:54;1.10;99.90
68813;DHT22;55808;48.112;11.552;2022-12-08T07:36:20;1.20;99.90
68813;DHT22;55808;48.112;11.552;2022-12-08T07:38:46;1.20;99.90
68813;DHT22;55808;48.112;11.552;2022-12-08T07:41:18;1.20;99.90
68813;DHT22;55808;48.112;11.552;2022-12-08T07:43:44;1.20;99.90
68813;DHT22;55808;48.112;11.552;2022-12-08T07:46:12;1.30;99.90
68813;DHT22;55808;48.112;11.552;2022-12-08T07:48:38;1.20;99.90
68813;DHT22;55808;48.112;11.552;2022-12-08T07:51:04;1.30;99.90
68813;DHT22;55808;48.112;11.552;2022-12-08T07:53:30;1.30;99.90
68813;DHT22;55808;48.112;11.552;2022-12-08T07:55:56;1.40;99.90
68813;DHT22;55808;48.112;11.552;2022-12-08T07:58:22;1.40;99.90
68813;DHT22;55808;48.112;11.552;2022-12-08T08:00:47;1.40;99.90
68813;DHT22;55808;48.112;11.552;2022-12-08T08:03:13;1.40;99.90
68813;DHT22;55808;48.112;11.552;2022-12-08T08:05:39;1.40;99.90
68813;DHT22;55808;48.112;11.552;2022-12-08T08:08:05;1.40;99.90
68813;DHT22;55808;48.112;11.552;2022-12-08T08:10:31;1.40;99.90
68813;DHT22;55808;48.112;11.552;2022-12-08T08:12:59;1.50;99.90
68813;DHT22;55808;48.112;11.552;2022-12-08T08:15:25;1.60;99.90
68813;DHT22;55808;48.112;11.552;2022-12-08T08:17:52;1.70;99.90
68813;DHT22;55808;48.112;11.552;2022-12-08T08:20:19;1.60;99.90
68813;DHT22;55808;48.112;11.552;2022-12-08T08:22:46;1.60;99.90
68813;DHT22;55808;48.112;11.552;2022-12-08T08:25:12;1.60;99.90
68813;DHT22;55808;48.112;11.552;2022-12-08T08:27:38;1.70;99.90
68813;DHT22;55808;48.112;11.552;2022-12-08T08:30:06;1.80;99.90
68813;DHT22;55808;48.112;11.552;2022-12-08T08:32:33;1.80;99.90
68813;DHT22;55808;48.112;11.552;2022-12-08T08:34:58;1.90;99.90
68813;DHT22;55808;48.112;11.552;2022-12-08T08:37:24;1.90;99.90
68813;DHT22;55808;48.112;11.552;2022-12-08T08:39:50;1.90;99.90
68813;DHT22;55808;48.112;11.552;2022-12-08T08:42:16;1.90;99.90
68813;DHT22;55808;48.112;11.552;2022-12-08T08:44:41;1.80;99.90
68813;DHT22;55808;48.112;11.552;2022-12-08T08:47:07;1.90;99.90
68813;DHT22;55808;48.112;11.552;2022-12-08T08:49:33;2.10;99.90
68813;DHT22;55808;48.112;11.552;2022-12-08T08:51:59;2.10;99.90
68813;DHT22;55808;48.112;11.552;2022-12-08T08:54:24;2.10;99.90
68813;DHT22;55808;48.112;11.552;2022-12-08T08:56:50;2.20;99.90
68813;DHT22;55808;48.112;11.552;2022-12-08T08:59:17;2.10;99.90
68813;DHT22;55808;48.112;11.552;2022-12-08T09:01:42;2.20;99.90
68813;DHT22;55808;48.112;11.552;2022-12-08T09:04:08;2.40;99.90
68813;DHT22;55808;48.112;11.552;2022-12-08T09:06:34;2.70;99.90
68813;DHT22;55808;48.112;11.552;2022-12-08T09:09:00;2.80;99.90
68813;DHT22;55808;48.112;11.552;2022-12-08T09:11:25;2.90;99.90
68813;DHT22;55808;48.112;11.552;2022-12-08T09:13:52;2.90;99.90
68813;DHT22;55808;48.112;11.552;2022-12-08T09:16:18;3.00;99.90
68813;DHT22;55808;48.112;11.552;2022-12-08T09:18:44;3.00;99.90
68813;DHT22;55808;48.112;11.552;2022-12-08T09:21:12;3.00;99.90
68813;DHT22;55808;48.112;11.552;2022-12-08T09:23:39;3.10;99.90
68813;DHT22;55808;48.112;11.552;2022-12-08T09:26:06;3.20;99.90
68813;DHT22;55808;48.112;11.552;2022-12-08T09:28:32;3.20;99.90
68813;DHT22;55808;48.112;11.552;2022-12-08T09:30:58;3.40;99.90
68813;DHT22;55808;48.112;11.552;2022-12-08T09:33:23;3.50;99.90
68813;DHT22;55808;48.112;11.552;2022-12-08T09:35:49;3.50;99.90
68813;DHT22;55808;48.112;11.552;2022-12-08T09:38:14;3.40;99.10
68813;DHT22;55808;48.112;11.552;2022-12-08T09:40:52;3.40;99.10
68813;DHT22;55808;48.112;11.552;2022-12-08T09:45:57;3.50;97.70
68813;DHT22;55808;48.112;11.552;2022-12-08T09:48:28;3.50;98.20
68813;DHT22;55808;48.112;11.552;2022-12-08T09:50:57;3.60;98.30
68813;DHT22;55808;48.112;11.552;2022-12-08T09:53:47;3.70;98.10
68813;DHT22;55808;48.112;11.552;2022-12-08T09:56:18;3.80;96.90
68813;DHT22;55808;48.112;11.552;2022-12-08T09:58:54;3.90;96.80
68813;DHT22;55808;48.112;11.552;2022-12-08T10:01:23;4.00;97.20
68813;DHT22;55808;48.112;11.552;2022-12-08T10:03:52;4.00;95.00
68813;DHT22;55808;48.112;11.552;2022-12-08T10:06:46;4.00;96.00
68813;DHT22;55808;48.112;11.552;2022-12-08T10:11:59;3.80;93.90
68813;DHT22;55808;48.112;11.552;2022-12-08T10:15:01;3.50;94.20
68813;DHT22;55808;48.112;11.552;2022-12-08T10:17:36;3.30;93.90
68813;DHT22;55808;48.112;11.552;2022-12-08T10:20:17;3.20;95.00
68813;DHT22;55808;48.112;11.552;2022-12-08T10:22:45;3.20;94.70
68813;DHT22;55808;48.112;11.552;2022-12-08T10:25:21;3.20;94.80
68813;DHT22;55808;48.112;11.552;2022-12-08T10:27:53;3.40;93.80
68813;DHT22;55808;48.112;11.552;2022-12-08T10:30:24;3.50;93.40
68813;DHT22;55808;48.112;11.552;2022-12-08T10:32:51;3.80;93.00
68813;DHT22;55808;48.112;11.552;2022-12-08T10:35:20;3.90;92.90
68813;DHT22;55808;48.112;11.552;2022-12-08T10:38:01;3.90;93.50
68813;DHT22;55808;48.112;11.552;2022-12-08T10:40:34;4.20;93.40
68813;DHT22;55808;48.112;11.552;2022-12-08T10:43:01;4.30;93.60
68813;DHT22;55808;48.112;11.552;2022-12-08T10:45:28;4.10;95.60
68813;DHT22;55808;48.112;11.552;2022-12-08T10:47:58;4.10;96.10
68813;DHT22;55808;48.112;11.552;2022-12-08T10:50:35;4.10;96.60
68813;DHT22;55808;48.112;11.552;2022-12-08T10:53:22;4.00;96.80
68813;DHT22;55808;48.112;11.552;2022-12-08T10:58:44;4.00;96.50
68813;DHT22;55808;48.112;11.552;2022-12-08T11:04:02;4.20;96.70
68813;DHT22;55808;48.112;11.552;2022-12-08T11:06:31;4.10;96.10
68813;DHT22;55808;48.112;11.552;2022-12-08T11:11:58;3.80;96.90
68813;DHT22;55808;48.112;11.552;2022-12-08T11:14:28;3.70;96.70
68813;DHT22;55808;48.112;11.552;2022-12-08T11:17:11;3.80;97.50
68813;DHT22;55808;48.112;11.552;2022-12-08T11:19:41;3.80;97.30
68813;DHT22;55808;48.112;11.552;2022-12-08T11:25:09;3.50;97.30
68813;DHT22;55808;48.112;11.552;2022-12-08T11:27:40;3.60;96.60
68813;DHT22;55808;48.112;11.552;2022-12-08T11:30:30;3.70;97.00
68813;DHT22;55808;48.112;11.552;2022-12-08T11:33:16;3.80;97.20
68813;DHT22;55808;48.112;11.552;2022-12-08T11:35:44;3.90;96.90
68813;DHT22;55808;48.112;11.552;2022-12-08T11:38:18;3.80;96.90
68813;DHT22;55808;48.112;11.552;2022-12-08T11:40:53;3.80;96.70
68813;DHT22;55808;48.112;11.552;2022-12-08T11:46:35;3.90;96.10
68813;DHT22;55808;48.112;11.552;2022-12-08T11:49:08;3.80;96.00
68813;DHT22;55808;48.112;11.552;2022-12-08T11:51:39;3.70;96.20
68813;DHT22;55808;48.112;11.552;2022-12-08T11:54:21;3.60;96.20
68813;DHT22;55808;48.112;11.552;2022-12-08T11:56:55;3.70;95.80
68813;DHT22;55808;48.112;11.552;2022-12-08T11:59:32;3.80;96.10
68813;DHT22;55808;48.112;11.552;2022-12-08T12:02:00;3.80;95.60
68813;DHT22;55808;48.112;11.552;2022-12-08T12:10:26;3.80;95.90
68813;DHT22;55808;48.112;11.552;2022-12-08T12:18:44;3.90;95.90
68813;DHT22;55808;48.112;11.552;2022-12-08T12:21:14;3.80;95.40
68813;DHT22;55808;48.112;11.552;2022-12-08T12:26:21;3.60;96.00
68813;DHT22;55808;48.112;11.552;2022-12-08T12:28:57;3.50;96.00
68813;DHT22;55808;48.112;11.552;2022-12-08T12:31:48;3.40;95.30
68813;DHT22;55808;48.112;11.552;2022-12-08T12:34:20;3.50;95.90
68813;DHT22;55808;48.112;11.552;2022-12-08T12:36:53;3.60;95.40
68813;DHT22;55808;48.112;11.552;2022-12-08T12:39:26;3.70;95.50
68813;DHT22;55808;48.112;11.552;2022-12-08T12:41:59;3.50;94.90
68813;DHT22;55808;48.112;11.552;2022-12-08T12:47:02;3.40;95.30
68813;DHT22;55808;48.112;11.552;2022-12-08T12:57:22;3.60;95.20
68813;DHT22;55808;48.112;11.552;2022-12-08T13:02:31;3.80;94.30
68813;DHT22;55808;48.112;11.552;2022-12-08T13:07:29;3.90;94.30
68813;DHT22;55808;48.112;11.552;2022-12-08T13:10:02;4.00;94.80
68813;DHT22;55808;48.112;11.552;2022-12-08T13:12:35;3.90;94.10
68813;DHT22;55808;48.112;11.552;2022-12-08T13:15:04;4.00;93.70
68813;DHT22;55808;48.112;11.552;2022-12-08T13:17:32;3.80;94.10
68813;DHT22;55808;48.112;11.552;2022-12-08T13:20:02;3.90;93.50
68813;DHT22;55808;48.112;11.552;2022-12-08T13:28:17;4.00;93.60
68813;DHT22;55808;48.112;11.552;2022-12-08T13:30:47;4.20;93.90
68813;DHT22;55808;48.112;11.552;2022-12-08T13:33:18;5.60;92.00
68813;DHT22;55808;48.112;11.552;2022-12-08T13:38:32;5.60;90.50
68813;DHT22;55808;48.112;11.552;2022-12-08T13:41:04;5.10;91.70
68813;DHT22;55808;48.112;11.552;2022-12-08T13:43:45;4.90;91.60
68813;DHT22;55808;48.112;11.552;2022-12-08T13:46:13;5.20;91.50
68813;DHT22;55808;48.112;11.552;2022-12-08T13:48:49;5.60;91.40
68813;DHT22;55808;48.112;11.552;2022-12-08T13:51:21;5.40;92.80
68813;DHT22;55808;48.112;11.552;2022-12-08T13:54:05;5.10;92.20
68813;DHT22;55808;48.112;11.552;2022-12-08T13:56:38;4.80;92.40
68813;DHT22;55808;48.112;11.552;2022-12-08T14:01:50;4.90;92.10
68813;DHT22;55808;48.112;11.552;2022-12-08T14:04:21;4.90;91.70
68813;DHT22;55808;48.112;11.552;2022-12-08T14:06:53;4.50;92.10
68813;DHT22;55808;48.112;11.552;2022-12-08T14:09:21;4.40;92.70
68813;DHT22;55808;48.112;11.552;2022-12-08T14:12:16;4.20;92.40
68813;DHT22;55808;48.112;11.552;2022-12-08T14:14:44;4.00;93.00
68813;DHT22;55808;48.112;11.552;2022-12-08T14:17:13;3.90;93.30
68813;DHT22;55808;48.112;11.552;2022-12-08T14:19:42;3.90;93.50
68813;DHT22;55808;48.112;11.552;2022-12-08T14:22:16;3.90;93.60
68813;DHT22;55808;48.112;11.552;2022-12-08T14:24:48;4.10;93.50
68813;DHT22;55808;48.112;11.552;2022-12-08T14:27:20;4.20;94.60
68813;DHT22;55808;48.112;11.552;2022-12-08T14:32:37;4.00;94.00
68813;DHT22;55808;48.112;11.552;2022-12-08T14:37:37;4.20;93.40
68813;DHT22;55808;48.112;11.552;2022-12-08T14:45:30;4.10;94.60
68813;DHT22;55808;48.112;11.552;2022-12-08T14:53:22;3.80;94.60
68813;DHT22;55808;48.112;11.552;2022-12-08T14:55:49;3.70;95.50
68813;DHT22;55808;48.112;11.552;2022-12-08T14:58:18;3.60;95.60
68813;DHT22;55808;48.112;11.552;2022-12-08T15:00:48;3.60;95.70
68813;DHT22;55808;48.112;11.552;2022-12-08T15:03:17;3.60;95.80
68813;DHT22;55808;48.112;11.552;2022-12-08T15:05:54;3.50;96.00
68813;DHT22;55808;48.112;11.552;2022-12-08T15:08:21;3.40;96.00
68813;DHT22;55808;48.112;11.552;2022-12-08T15:11:13;3.40;96.00
68813;DHT22;55808;48.112;11.552;2022-12-08T15:13:45;3.40;96.50
68813;DHT22;55808;48.112;11.552;2022-12-08T15:16:28;3.40;96.70
68813;DHT22;55808;48.112;11.552;2022-12-08T15:19:13;3.30;96.50
68813;DHT22;55808;48.112;11.552;2022-12-08T15:21:41;3.30;96.70
68813;DHT22;55808;48.112;11.552;2022-12-08T15:24:10;3.30;97.00
68813;DHT22;55808;48.112;11.552;2022-12-08T15:26:43;3.30;96.80
68813;DHT22;55808;48.112;11.552;2022-12-08T15:29:30;3.30;96.70
68813;DHT22;55808;48.112;11.552;2022-12-08T15:31:58;3.20;96.60
68813;DHT22;55808;48.112;11.552;2022-12-08T15:34:24;3.20;97.00
68813;DHT22;55808;48.112;11.552;2022-12-08T15:36:51;3.20;97.00
68813;DHT22;55808;48.112;11.552;2022-12-08T15:39:34;3.10;96.90
68813;DHT22;55808;48.112;11.552;2022-12-08T15:42:02;3.10;96.70
68813;DHT22;55808;48.112;11.552;2022-12-08T15:44:28;3.10;96.20
68813;DHT22;55808;48.112;11.552;2022-12-08T15:46:54;3.10;96.60
68813;DHT22;55808;48.112;11.552;2022-12-08T15:49:21;3.10;96.30
68813;DHT22;55808;48.112;11.552;2022-12-08T15:51:48;3.00;96.90
68813;DHT22;55808;48.112;11.552;2022-12-08T15:54:14;3.10;96.00
68813;DHT22;55808;48.112;11.552;2022-12-08T15:56:52;3.00;96.40
68813;DHT22;55808;48.112;11.552;2022-12-08T15:59:22;3.00;96.20
68813;DHT22;55808;48.112;11.552;2022-12-08T16:01:49;3.00;96.10
68813;DHT22;55808;48.112;11.552;2022-12-08T16:04:16;3.00;96.60
68813;DHT22;55808;48.112;11.552;2022-12-08T16:06:46;3.00;96.70
68813;DHT22;55808;48.112;11.552;2022-12-08T16:09:37;3.00;96.70
68813;DHT22;55808;48.112;11.552;2022-12-08T16:12:05;3.00;96.70
68813;DHT22;55808;48.112;11.552;2022-12-08T16:14:49;3.00;97.30
68813;DHT22;55808;48.112;11.552;2022-12-08T16:17:16;2.90;97.00
68813;DHT22;55808;48.112;11.552;2022-12-08T16:19:42;2.90;96.70
68813;DHT22;55808;48.112;11.552;2022-12-08T16:22:20;2.90;97.10
68813;DHT22;55808;48.112;11.552;2022-12-08T16:24:46;2.90;97.30
68813;DHT22;55808;48.112;11.552;2022-12-08T16:29:47;2.80;97.20
68813;DHT22;55808;48.112;11.552;2022-12-08T16:32:14;2.80;97.40
68813;DHT22;55808;48.112;11.552;2022-12-08T16:34:40;2.80;97.20
68813;DHT22;55808;48.112;11.552;2022-12-08T16:37:11;2.70;97.20
68813;DHT22;55808;48.112;11.552;2022-12-08T16:39:38;2.60;97.80
68813;DHT22;55808;48.112;11.552;2022-12-08T16:42:03;2.60;97.40
68813;DHT22;55808;48.112;11.552;2022-12-08T16:44:47;2.60;97.00
68813;DHT22;55808;48.112;11.552;2022-12-08T16:47:13;2.50;97.80
68813;DHT22;55808;48.112;11.552;2022-12-08T16:49:39;2.60;98.00
68813;DHT22;55808;48.112;11.552;2022-12-08T16:52:05;2.50;97.50
68813;DHT22;55808;48.112;11.552;2022-12-08T16:54:31;2.40;97.40
68813;DHT22;55808;48.112;11.552;2022-12-08T16:56:57;2.40;98.50
68813;DHT22;55808;48.112;11.552;2022-12-08T16:59:25;2.40;97.60
68813;DHT22;55808;48.112;11.552;2022-12-08T17:01:50;2.40;97.60
68813;DHT22;55808;48.112;11.552;2022-12-08T17:04:16;2.30;97.90
68813;DHT22;55808;48.112;11.552;2022-12-08T17:06:41;2.30;98.20
68813;DHT22;55808;48.112;11.552;2022-12-08T17:09:07;2.30;98.00
68813;DHT22;55808;48.112;11.552;2022-12-08T17:11:32;2.20;98.60
68813;DHT22;55808;48.112;11.552;2022-12-08T17:13:59;2.20;98.40
68813;DHT22;55808;48.112;11.552;2022-12-08T17:16:25;2.20;98.30
68813;DHT22;55808;48.112;11.552;2022-12-08T17:18:51;2.20;98.10
68813;DHT22;55808;48.112;11.552;2022-12-08T17:21:18;2.10;98.70
68813;DHT22;55808;48.112;11.552;2022-12-08T17:23:44;2.10;98.70
68813;DHT22;55808;48.112;11.552;2022-12-08T17:26:12;2.10;98.90
68813;DHT22;55808;48.112;11.552;2022-12-08T17:28:38;2.10;99.20